Time;durP1;ratioP1;P1;durP2;ratioP2;P2;SDS_P1;SDS_P2;PMS_P1;PMS_P2;Temp;Humidity;BMP_temperature;BMP_pressure;BME280_temperature;BME280_humidity;BME280_pressure;Samples;Min_cycle;Max_cycle;Signal;HPM_P1;HPM_P2
2022/05/09 00:00:35;;;;;;;13.70;12.40;;;;;;;14.32;88.21;98849.47;4117324;28;20758;-93
2022/05/09 00:02:38;;;;;;;14.70;13.10;;;;;;;14.30;88.68;98853.16;4123698;28;21243;-93
2022/05/09 00:04:43;;;;;;;14.70;13.10;;;;;;;14.28;88.39;98847.16;4128757;28;20654;-93
2022/05/09 00:06:47;;;;;;;17.20;12.93;;;;;;;14.25;88.43;98853.50;4124534;28;20649;-92
2022/05/09 00:08:50;;;;;;;15.30;13.03;;;;;;;14.21;88.29;98848.56;4112764;28;20653;-92
2022/05/09 00:10:54;;;;;;;14.20;12.80;;;;;;;14.18;88.42;98852.25;4113009;28;20677;-93
2022/05/09 00:12:57;;;;;;;14.83;13.27;;;;;;;14.13;87.92;98850.03;4113814;28;20658;-93
2022/05/09 00:15:00;;;;;;;15.27;13.67;;;;;;;14.11;88.69;98850.16;4129457;28;20622;-93
2022/05/09 00:17:04;;;;;;;13.90;12.50;;;;;;;14.06;88.33;98852.28;4132455;28;21278;-92
2022/05/09 00:19:09;;;;;;;16.07;14.07;;;;;;;14.04;88.23;98851.47;4110991;28;20643;-93
2022/05/09 00:21:14;;;;;;;15.27;13.43;;;;;;;14.01;88.95;98843.00;4125958;28;20649;-93
2022/05/09 00:23:17;;;;;;;15.87;14.30;;;;;;;13.98;89.04;98843.22;4111416;28;21257;-92
2022/05/09 00:25:22;;;;;;;15.03;13.63;;;;;;;13.94;88.65;98837.34;4128705;28;21321;-92
2022/05/09 00:27:26;;;;;;;21.10;14.30;;;;;;;13.92;89.49;98841.88;4134004;28;20695;-92
2022/05/09 00:29:29;;;;;;;15.03;13.43;;;;;;;13.93;88.68;98845.31;4134938;28;20642;-92
2022/05/09 00:31:33;;;;;;;18.10;13.93;;;;;;;13.91;88.75;98836.75;4144584;28;20680;-93
2022/05/09 00:33:38;;;;;;;15.17;13.67;;;;;;;13.89;89.22;98847.34;4131480;28;20633;-93
2022/05/09 00:35:44;;;;;;;15.70;13.70;;;;;;;13.88;89.73;98844.81;4127925;28;20645;-93
2022/05/09 00:37:48;;;;;;;15.33;13.73;;;;;;;13.89;89.17;98846.47;4115365;28;21002;-93
2022/05/09 00:39:52;;;;;;;16.30;14.73;;;;;;;13.87;89.63;98843.13;4116018;28;20646;-92
2022/05/09 00:41:55;;;;;;;14.33;12.97;;;;;;;13.81;89.36;98841.75;4124879;28;20664;-92
2022/05/09 00:44:00;;;;;;;15.17;13.57;;;;;;;13.74;88.91;98835.28;4125116;28;20678;-92
2022/05/09 00:46:04;;;;;;;17.00;14.70;;;;;;;13.72;89.38;98847.63;4142187;28;20638;-92
2022/05/09 00:48:09;;;;;;;16.23;14.53;;;;;;;13.69;89.02;98842.59;4143607;28;20771;-92
2022/05/09 00:50:14;;;;;;;15.70;14.10;;;;;;;13.68;89.27;98835.69;4145113;28;20636;-91
2022/05/09 00:52:19;;;;;;;14.80;13.10;;;;;;;13.64;90.47;98834.22;4111560;28;20651;-93
2022/05/09 00:54:24;;;;;;;15.87;14.27;;;;;;;13.63;89.77;98841.38;4112271;28;20641;-92
2022/05/09 00:56:31;;;;;;;15.50;14.00;;;;;;;13.63;90.86;98833.50;4112973;28;20760;-92
2022/05/09 00:58:39;;;;;;;15.30;13.80;;;;;;;13.63;89.73;98836.13;4111506;28;20649;-92
2022/05/09 01:00:45;;;;;;;15.80;14.07;;;;;;;13.61;89.84;98836.22;4142588;28;20626;-92
2022/05/09 01:02:51;;;;;;;16.00;14.40;;;;;;;13.62;89.84;98844.91;4127185;28;20734;-92
2022/05/09 01:04:57;;;;;;;15.57;13.97;;;;;;;13.58;90.43;98836.44;4129585;28;20675;-92
2022/05/09 01:07:00;;;;;;;18.40;14.47;;;;;;;13.58;89.60;98843.47;4141884;28;20645;-92
2022/05/09 01:09:04;;;;;;;18.40;15.00;;;;;;;13.57;90.00;98836.53;4131178;28;20664;-93
2022/05/09 01:11:11;;;;;;;17.37;14.67;;;;;;;13.56;90.48;98835.72;4141860;28;20632;-92
2022/05/09 01:13:16;;;;;;;16.20;14.60;;;;;;;13.56;89.70;98830.47;4130206;28;20633;-92
2022/05/09 01:15:19;;;;;;;15.00;13.50;;;;;;;13.57;89.60;98841.78;4127564;28;20633;-92
2022/05/09 01:17:24;;;;;;;22.53;15.57;;;;;;;13.53;89.60;98837.69;4128744;28;20633;-92
2022/05/09 01:19:30;;;;;;;16.63;14.93;;;;;;;13.53;89.38;98837.69;4128417;28;20632;-92
2022/05/09 01:21:36;;;;;;;16.53;14.93;;;;;;;13.52;90.33;98836.84;4129655;28;20645;-92
2022/05/09 01:23:39;;;;;;;16.33;14.70;;;;;;;13.50;89.57;98843.13;4125373;28;20683;-92
2022/05/09 01:25:45;;;;;;;15.43;13.93;;;;;;;13.47;90.17;98844.19;4143971;28;20656;-92
2022/05/09 01:27:49;;;;;;;15.23;13.63;;;;;;;13.43;90.10;98834.03;4129954;28;20631;-92
2022/05/09 01:29:59;;;;;;;15.80;14.13;;;;;;;13.40;89.54;98834.22;4129838;28;21491;-92
2022/05/09 01:32:03;;;;;;;15.30;13.70;;;;;;;13.39;90.14;98837.78;4146568;28;20623;-92
2022/05/09 01:34:09;;;;;;;15.17;13.57;;;;;;;13.34;88.70;98838.09;4130324;28;20744;-92
2022/05/09 01:36:15;;;;;;;16.30;14.60;;;;;;;13.35;88.52;98838.91;4125816;28;20724;-92
2022/05/09 01:38:25;;;;;;;16.33;13.97;;;;;;;13.31;89.16;98843.53;4110997;28;20661;-92
2022/05/09 01:40:28;;;;;;;16.50;14.90;;;;;;;13.29;89.03;98842.81;4125014;28;21183;-92
2022/05/09 01:42:32;;;;;;;16.23;14.53;;;;;;;13.29;90.33;98839.34;4108007;28;21096;-92
2022/05/09 01:44:35;;;;;;;16.80;15.00;;;;;;;13.27;90.17;98838.59;4122749;28;20647;-93
2022/05/09 01:51:20;;;;;;;16.40;14.80;;;;;;;13.18;90.21;98841.00;4127016;28;20651;-93
2022/05/09 01:53:25;;;;;;;15.77;14.30;;;;;;;13.17;90.54;98834.94;4129620;28;20663;-92
2022/05/09 01:55:29;;;;;;;16.47;14.77;;;;;;;13.15;89.54;98838.59;4130487;28;21085;-93
2022/05/09 01:57:32;;;;;;;16.67;14.97;;;;;;;13.10;90.89;98844.13;4130492;28;20712;-93
2022/05/09 01:59:36;;;;;;;16.17;14.57;;;;;;;13.08;91.14;98832.94;4117100;28;20659;-93
2022/05/09 02:01:42;;;;;;;16.37;14.73;;;;;;;13.07;89.42;98844.34;4107592;28;21220;-92
2022/05/09 02:03:46;;;;;;;18.47;15.63;;;;;;;13.06;90.05;98840.03;4106834;28;20684;-93
2022/05/09 02:05:51;;;;;;;17.73;15.83;;;;;;;13.05;89.97;98838.38;4130699;28;20628;-93
2022/05/09 02:07:55;;;;;;;18.20;14.93;;;;;;;13.05;89.84;98845.38;4130445;28;21187;-93
2022/05/09 02:09:59;;;;;;;16.43;14.70;;;;;;;13.05;90.35;98850.59;4135661;28;20631;-93
2022/05/09 02:12:04;;;;;;;17.53;15.73;;;;;;;13.01;90.90;98844.75;4147470;28;20741;-93
2022/05/09 02:14:08;;;;;;;16.50;14.70;;;;;;;13.00;90.60;98840.44;4138415;28;20631;-93
2022/05/09 02:16:12;;;;;;;16.37;14.53;;;;;;;12.98;89.61;98841.50;4128578;28;20636;-93
2022/05/09 02:18:15;;;;;;;16.47;14.77;;;;;;;12.98;89.57;98850.19;4131977;28;20929;-93
2022/05/09 02:20:19;;;;;;;16.03;14.10;;;;;;;12.94;90.07;98842.63;4146126;28;20697;-92
2022/05/09 02:22:22;;;;;;;15.93;14.40;;;;;;;12.90;89.35;98852.47;4131188;28;20639;-93
2022/05/09 02:24:27;;;;;;;16.30;14.07;;;;;;;12.82;90.45;98846.00;4113562;28;20635;-93
2022/05/09 02:26:32;;;;;;;16.97;14.97;;;;;;;12.78;90.13;98844.56;4111803;28;20677;-93
2022/05/09 02:28:35;;;;;;;16.13;14.53;;;;;;;12.74;88.55;98841.28;4126378;28;20670;-92
2022/05/09 02:30:39;;;;;;;16.10;14.37;;;;;;;12.72;90.31;98842.31;4119999;28;20635;-93
2022/05/09 02:32:42;;;;;;;16.70;15.00;;;;;;;12.70;89.96;98842.44;4143792;28;20659;-93
2022/05/09 02:34:46;;;;;;;16.70;15.00;;;;;;;12.68;91.17;98844.28;4128215;28;20726;-93
2022/05/09 02:36:49;;;;;;;16.83;14.80;;;;;;;12.70;90.07;98845.03;4143519;28;20651;-91
2022/05/09 02:38:53;;;;;;;18.27;15.73;;;;;;;12.68;89.98;98844.28;4123529;28;20632;-93
2022/05/09 02:40:56;;;;;;;17.33;15.60;;;;;;;12.68;90.46;98848.69;4128697;28;20624;-93
2022/05/09 02:43:01;;;;;;;16.67;14.87;;;;;;;12.66;89.17;98849.72;4134832;28;20648;-93
2022/05/09 02:45:06;;;;;;;16.27;14.57;;;;;;;12.62;89.01;98843.84;4142156;28;21248;-92
2022/05/09 02:47:09;;;;;;;18.30;14.97;;;;;;;12.59;89.97;98851.91;4128839;28;21023;-93
2022/05/09 02:49:14;;;;;;;16.73;15.00;;;;;;;12.58;90.53;98852.00;4112200;28;20665;-93
2022/05/09 02:51:18;;;;;;;16.50;14.80;;;;;;;12.55;89.51;98854.81;4143325;28;20651;-93
2022/05/09 02:53:28;;;;;;;16.30;14.70;;;;;;;12.53;91.08;98854.06;4146084;28;20703;-93
2022/05/09 02:55:32;;;;;;;17.60;15.70;;;;;;;12.52;90.21;98853.22;4128950;28;20707;-92
2022/05/09 02:57:35;;;;;;;16.37;14.77;;;;;;;12.48;89.72;98849.13;4139537;28;21027;-92
2022/05/09 02:59:40;;;;;;;16.90;15.10;;;;;;;12.43;89.58;98850.34;4145659;28;21944;-94
2022/05/09 03:01:43;;;;;;;16.73;15.03;;;;;;;12.42;90.63;98857.38;4130656;28;20649;-93
2022/05/09 03:06:08;;;;;;;15.77;14.27;;;;;;;12.40;89.96;98847.94;4129839;28;20641;-93
2022/05/09 03:08:13;;;;;;;17.13;14.47;;;;;;;12.36;89.88;98843.84;4126635;28;21351;-93
2022/05/09 03:10:18;;;;;;;16.33;14.33;;;;;;;12.33;90.66;98847.50;4132095;28;20701;-93
2022/05/09 03:12:21;;;;;;;17.70;15.40;;;;;;;12.31;90.73;98848.50;4115427;28;21075;-92
2022/05/09 03:14:24;;;;;;;16.57;14.67;;;;;;;12.29;90.82;98846.00;4135795;28;20650;-93
2022/05/09 03:16:29;;;;;;;16.60;14.90;;;;;;;12.27;90.71;98839.19;4144706;28;20664;-93
2022/05/09 03:18:33;;;;;;;14.93;13.43;;;;;;;12.25;90.03;98855.00;4143561;28;21247;-92
2022/05/09 03:20:38;;;;;;;18.00;14.97;;;;;;;12.23;90.65;98849.94;4143319;28;20974;-93
2022/05/09 03:22:41;;;;;;;16.80;15.03;;;;;;;12.19;90.04;98844.03;4114688;28;20634;-93
2022/05/09 03:24:44;;;;;;;16.30;14.57;;;;;;;12.16;89.78;98846.84;4113494;28;20691;-93
2022/05/09 03:26:47;;;;;;;15.63;14.00;;;;;;;12.12;90.17;98842.78;4128833;28;20640;-93
2022/05/09 03:28:50;;;;;;;16.77;15.07;;;;;;;12.12;89.92;98847.13;4146213;28;20641;-92
2022/05/09 03:30:56;;;;;;;15.93;14.33;;;;;;;12.13;91.44;98841.81;4147627;28;20629;-93
2022/05/09 03:33:00;;;;;;;16.77;14.97;;;;;;;12.14;90.78;98840.88;4144293;28;21193;-93
2022/05/09 03:35:04;;;;;;;16.60;14.80;;;;;;;12.14;90.66;98845.28;4129330;28;20667;-93
2022/05/09 03:37:08;;;;;;;17.40;15.50;;;;;;;12.14;90.19;98851.34;4111640;28;20759;-93
2022/05/09 03:39:11;;;;;;;16.30;14.60;;;;;;;12.11;90.37;98841.06;4128619;28;20631;-93
2022/05/09 03:41:15;;;;;;;16.57;14.77;;;;;;;12.10;89.92;98844.63;4145193;28;20738;-92
2022/05/09 03:43:18;;;;;;;17.87;15.83;;;;;;;12.06;89.98;98851.00;4127907;28;20628;-93
2022/05/09 03:45:21;;;;;;;16.57;14.83;;;;;;;12.02;89.96;98846.88;4116236;28;20645;-93
2022/05/09 03:47:24;;;;;;;17.83;15.77;;;;;;;12.03;90.08;98847.75;4113948;28;20868;-92
2022/05/09 03:49:29;;;;;;;17.00;15.30;;;;;;;12.06;91.03;98852.78;4144014;28;20683;-92
2022/05/09 03:51:32;;;;;;;17.37;15.70;;;;;;;12.05;90.49;98845.88;4112796;28;20646;-93
2022/05/09 03:53:36;;;;;;;18.63;16.70;;;;;;;12.07;90.02;98850.06;4129640;28;20666;-94
2022/05/09 03:55:39;;;;;;;18.13;16.23;;;;;;;12.06;91.60;98843.16;4133734;28;20636;-93
2022/05/09 03:57:47;;;;;;;17.93;16.00;;;;;;;12.08;91.09;98851.72;4129623;28;20675;-92
2022/05/09 03:59:50;;;;;;;18.37;16.47;;;;;;;12.08;89.96;98846.50;4140803;28;20625;-93
2022/05/09 04:01:56;;;;;;;15.63;14.00;;;;;;;12.05;90.43;98851.91;4131526;28;20644;-93
2022/05/09 04:04:00;;;;;;;17.37;14.80;;;;;;;12.01;90.54;98854.81;4135748;28;20709;-93
2022/05/09 04:06:05;;;;;;;18.40;16.50;;;;;;;11.99;90.13;98849.69;4129814;28;21403;-92
2022/05/09 04:08:10;;;;;;;17.07;15.27;;;;;;;12.03;91.29;98855.59;4131040;28;20631;-92
2022/05/09 04:10:15;;;;;;;17.00;15.30;;;;;;;12.06;90.52;98860.63;4127581;28;20642;-93
2022/05/09 04:12:18;;;;;;;18.50;15.77;;;;;;;12.06;90.50;98861.47;4112741;28;20636;-93
2022/05/09 04:16:49;;;;;;;16.30;14.60;;;;;;;12.09;89.88;98863.00;4113548;28;20635;-92
2022/05/09 04:16:50;;;;;;;16.53;14.83;;;;;;;12.11;89.53;98862.00;4143978;28;20689;-93
2022/05/09 04:18:56;;;;;;;16.70;15.00;;;;;;;12.14;91.25;98856.59;4128588;28;20769;-93
2022/05/09 04:21:00;;;;;;;18.73;16.77;;;;;;;12.16;91.00;98859.94;4128704;28;20640;-94
2022/05/09 04:23:09;;;;;;;19.83;17.13;;;;;;;12.19;91.39;98862.34;4134960;28;20757;-93
2022/05/09 04:25:12;;;;;;;18.53;16.63;;;;;;;12.24;90.40;98862.94;4144506;28;20659;-93
2022/05/09 04:27:15;;;;;;;18.67;16.27;;;;;;;12.27;92.15;98865.34;4129279;28;20639;-92
2022/05/09 04:29:19;;;;;;;19.63;16.77;;;;;;;12.30;90.99;98865.16;4130059;28;20631;-93
2022/05/09 04:31:22;;;;;;;18.47;16.57;;;;;;;12.34;91.22;98864.00;4130359;28;20640;-93
2022/05/09 04:33:27;;;;;;;18.40;16.50;;;;;;;12.40;90.13;98863.63;4112274;28;20636;-92
2022/05/09 04:35:30;;;;;;;17.33;15.63;;;;;;;12.45;90.78;98877.28;4116967;28;20978;-93
2022/05/09 04:37:34;;;;;;;17.17;15.50;;;;;;;12.45;90.95;98872.88;4130935;28;20641;-93
2022/05/09 04:39:38;;;;;;;18.27;16.23;;;;;;;12.51;90.14;98876.84;4130422;28;20631;-93
2022/05/09 04:41:42;;;;;;;18.80;16.50;;;;;;;12.55;90.51;98873.13;4113991;28;20664;-93
2022/05/09 04:43:45;;;;;;;17.77;15.80;;;;;;;12.59;91.32;98874.63;4148631;28;20738;-93
2022/05/09 04:45:49;;;;;;;17.10;15.30;;;;;;;12.63;90.21;98879.56;4135043;28;20661;-94
2022/05/09 04:47:52;;;;;;;18.17;16.20;;;;;;;12.67;91.67;98881.03;4129444;28;20674;-94
2022/05/09 04:49:56;;;;;;;17.77;15.97;;;;;;;12.69;92.51;98880.00;4141101;28;20657;-93
2022/05/09 04:51:59;;;;;;;18.20;16.40;;;;;;;12.73;91.70;98884.13;4129815;28;20673;-93
2022/05/09 04:54:02;;;;;;;18.43;16.63;;;;;;;12.77;91.46;98880.34;4138733;28;20635;-94
2022/05/09 04:56:07;;;;;;;18.50;16.60;;;;;;;12.82;91.51;98886.16;4143625;28;20762;-94
2022/05/09 04:58:12;;;;;;;17.60;15.90;;;;;;;12.88;91.64;98883.13;4126802;28;20714;-93
2022/05/09 05:00:18;;;;;;;18.13;16.30;;;;;;;12.94;91.70;98893.19;4125909;28;21840;-94
2022/05/09 05:02:21;;;;;;;18.00;16.10;;;;;;;13.01;91.61;98893.66;4145230;28;20718;-93
2022/05/09 05:04:24;;;;;;;17.83;16.20;;;;;;;13.04;92.26;98893.47;4145177;28;21330;-94
2022/05/09 05:06:28;;;;;;;18.63;16.70;;;;;;;13.09;92.28;98891.38;4150977;28;20636;-93
2022/05/09 05:08:34;;;;;;;17.73;15.83;;;;;;;13.13;91.22;98896.31;4143332;28;20664;-93
2022/05/09 05:10:38;;;;;;;20.40;15.67;;;;;;;13.19;90.57;98898.53;4117794;28;20730;-93
2022/05/09 05:12:42;;;;;;;18.13;16.33;;;;;;;13.24;91.69;98893.81;4131607;28;20664;-93
2022/05/09 05:14:46;;;;;;;17.50;15.73;;;;;;;13.30;90.61;98899.47;4127740;28;21232;-93
2022/05/09 05:17:01;;;;;;;18.63;16.80;;;;;;;13.38;90.94;98898.97;4127023;28;21220;-93
2022/05/09 05:19:09;;;;;;;18.80;16.90;;;;;;;13.43;91.59;98900.38;4130298;28;20644;-93
2022/05/09 05:21:15;;;;;;;18.10;16.40;;;;;;;13.49;91.76;98899.13;4145950;28;20659;-89
2022/05/09 05:23:19;;;;;;;18.97;17.03;;;;;;;13.55;91.64;98901.34;4149084;28;20826;-96
2022/05/09 05:25:26;;;;;;;18.50;16.70;;;;;;;13.62;91.51;98892.09;4115182;28;20661;-91
2022/05/09 05:27:30;;;;;;;18.40;16.50;;;;;;;13.73;90.41;98896.50;4139582;28;20666;-90
2022/05/09 05:29:34;;;;;;;18.50;16.60;;;;;;;13.88;89.91;98900.72;4134784;28;20659;-90
2022/05/09 05:31:37;;;;;;;17.73;15.93;;;;;;;14.08;89.17;98899.38;4145153;28;20623;-90
2022/05/09 05:33:41;;;;;;;18.30;16.50;;;;;;;14.32;89.42;98901.97;4134627;28;20626;-92
2022/05/09 05:35:44;;;;;;;18.40;16.50;;;;;;;14.57;87.75;98904.53;4109740;28;20645;-90
2022/05/09 05:37:47;;;;;;;17.10;15.40;;;;;;;14.81;87.89;98911.50;4105110;28;20752;-92
2022/05/09 05:39:51;;;;;;;17.63;15.93;;;;;;;15.08;86.50;98909.50;4132230;28;20735;-92
2022/05/09 05:41:54;;;;;;;17.90;16.17;;;;;;;15.33;85.17;98917.28;4134560;28;20650;-90
2022/05/09 05:43:57;;;;;;;17.50;15.87;;;;;;;15.51;85.29;98918.53;4136090;28;20644;-90
2022/05/09 05:46:02;;;;;;;17.03;15.40;;;;;;;15.75;84.14;98913.09;4113428;28;20668;-91
2022/05/09 05:48:07;;;;;;;17.93;16.13;;;;;;;15.99;84.26;98913.84;4144641;28;20648;-91
2022/05/09 05:50:12;;;;;;;17.53;15.90;;;;;;;16.21;84.38;98916.53;4132265;28;21040;-91
2022/05/09 05:52:17;;;;;;;17.63;15.90;;;;;;;16.46;82.59;98913.66;4130967;28;20993;-91
2022/05/09 05:54:20;;;;;;;17.07;15.47;;;;;;;16.66;81.45;98926.94;4143459;28;20741;-91
2022/05/09 05:56:23;;;;;;;17.37;15.77;;;;;;;16.85;81.02;98930.59;4107060;28;20632;-93
2022/05/09 05:58:28;;;;;;;18.23;15.33;;;;;;;17.03;82.38;98927.34;4104868;28;20659;-93
2022/05/09 06:00:32;;;;;;;17.23;15.13;;;;;;;17.23;80.79;98926.59;4108152;28;21202;-89
2022/05/09 06:02:38;;;;;;;17.33;15.30;;;;;;;17.44;80.08;98931.91;4122239;28;20638;-90
2022/05/09 06:04:41;;;;;;;16.70;15.00;;;;;;;17.63;79.51;98931.09;4128375;28;20639;-90
2022/05/09 06:06:44;;;;;;;16.90;15.20;;;;;;;17.82;80.09;98920.69;4110667;28;20639;-91
2022/05/09 06:08:48;;;;;;;16.97;15.17;;;;;;;18.04;78.88;98939.00;4147814;28;20671;-90
2022/05/09 06:10:51;;;;;;;16.27;14.87;;;;;;;18.25;78.81;98934.56;4134762;28;20632;-90
2022/05/09 06:12:54;;;;;;;18.17;15.60;;;;;;;18.45;78.54;98938.03;4150923;28;20746;-90
2022/05/09 06:17:18;;;;;;;16.17;14.67;;;;;;;18.85;77.62;98941.50;4135373;28;20662;-88
2022/05/09 06:19:23;;;;;;;16.37;14.77;;;;;;;19.04;76.99;98945.06;4142172;28;20646;-89
2022/05/09 06:21:27;;;;;;;15.97;14.37;;;;;;;19.31;76.38;98947.06;4127874;28;20627;-87
2022/05/09 06:23:32;;;;;;;17.30;15.50;;;;;;;19.58;75.05;98948.88;4132918;28;20627;-87
2022/05/09 06:25:36;;;;;;;15.50;14.17;;;;;;;19.60;73.82;98946.91;4131384;28;20663;-87
2022/05/09 06:27:43;;;;;;;14.03;12.63;;;;;;;19.76;74.10;98947.22;4111915;28;21223;-87
2022/05/09 06:29:46;;;;;;;14.00;12.60;;;;;;;20.03;73.89;98950.84;4114278;28;21468;-87
2022/05/09 06:31:54;;;;;;;13.37;12.20;;;;;;;20.30;71.98;98942.13;4149749;28;21574;-89
2022/05/09 06:33:58;;;;;;;14.10;12.80;;;;;;;20.48;72.26;98951.84;4126015;28;20638;-88
2022/05/09 06:36:06;;;;;;;14.23;12.83;;;;;;;20.58;69.89;98952.63;4106493;28;21216;-87
2022/05/09 06:38:10;;;;;;;12.93;11.83;;;;;;;20.52;70.29;98942.59;4124398;28;21743;-87
2022/05/09 06:40:14;;;;;;;13.23;11.93;;;;;;;20.63;71.10;98945.09;4124776;28;21293;-87
2022/05/09 06:42:17;;;;;;;13.47;12.30;;;;;;;20.76;69.50;98953.56;4109762;28;20669;-87
2022/05/09 06:44:21;;;;;;;13.87;12.47;;;;;;;20.89;69.97;98949.59;4111174;28;20707;-87
2022/05/09 06:46:25;;;;;;;14.10;12.70;;;;;;;21.06;69.90;98949.63;4128399;28;21110;-88
2022/05/09 06:48:28;;;;;;;11.90;10.83;;;;;;;21.10;69.52;98952.84;4129461;28;20627;-88
2022/05/09 06:50:33;;;;;;;12.37;11.27;;;;;;;21.30;68.63;98949.88;4129551;28;20659;-88
2022/05/09 06:52:42;;;;;;;12.53;11.43;;;;;;;21.52;68.79;98952.97;4128752;28;20643;-88
2022/05/09 06:55:07;;;;;;;12.80;11.60;;;;;;;21.82;68.23;98957.91;4126366;28;20628;-87
2022/05/09 06:57:10;;;;;;;12.70;11.40;;;;;;;21.96;68.38;98952.03;4137102;28;20629;-88
2022/05/09 06:59:14;;;;;;;12.73;11.63;;;;;;;22.18;66.32;98951.56;4116600;28;20691;-88
2022/05/09 07:01:19;;;;;;;12.00;10.90;;;;;;;22.07;65.81;98943.81;4147518;28;20721;-88
2022/05/09 07:03:23;;;;;;;12.37;11.27;;;;;;;22.12;65.70;98950.34;4133781;28;20702;-88
2022/05/09 07:05:27;;;;;;;13.20;12.00;;;;;;;22.28;65.12;98948.69;4132942;28;20635;-88
2022/05/09 07:07:30;;;;;;;13.03;11.87;;;;;;;22.43;66.17;98954.22;4122978;28;20628;-88
2022/05/09 07:09:35;;;;;;;13.20;12.00;;;;;;;22.61;65.45;98945.19;4130070;28;20639;-88
2022/05/09 07:11:39;;;;;;;11.87;10.63;;;;;;;22.77;65.92;98947.94;4143127;28;20676;-88
2022/05/09 07:13:42;;;;;;;12.07;10.97;;;;;;;22.84;64.52;98954.31;4150200;28;20622;-88
2022/05/09 07:15:45;;;;;;;11.50;10.40;;;;;;;22.95;64.80;98948.72;4148136;28;20627;-89
2022/05/09 07:17:50;;;;;;;12.30;11.20;;;;;;;22.86;64.58;98958.47;4143094;28;20658;-88
2022/05/09 07:19:53;;;;;;;12.60;11.50;;;;;;;22.97;64.33;98950.25;4130523;28;20639;-88
2022/05/09 07:21:56;;;;;;;11.83;10.77;;;;;;;23.10;64.08;98953.28;4133183;28;20623;-88
2022/05/09 07:24:00;;;;;;;11.93;10.83;;;;;;;23.21;64.84;98950.31;4148362;28;21304;-89
2022/05/09 07:26:05;;;;;;;11.87;10.67;;;;;;;23.43;64.58;98957.69;4134401;28;20781;-88
2022/05/09 07:28:09;;;;;;;11.60;10.60;;;;;;;23.58;63.66;98961.41;4117470;28;20639;-88
2022/05/09 07:30:13;;;;;;;11.63;10.47;;;;;;;23.69;63.17;98957.44;4114499;28;21096;-88
2022/05/09 07:32:17;;;;;;;11.93;10.83;;;;;;;23.88;64.04;98956.28;4115631;28;20672;-88
2022/05/09 07:34:20;;;;;;;11.70;10.60;;;;;;;24.01;62.82;98959.28;4131121;28;20983;-88
2022/05/09 07:36:23;;;;;;;11.47;10.37;;;;;;;24.09;63.33;98957.44;4114535;28;20644;-88
2022/05/09 07:38:27;;;;;;;11.53;10.43;;;;;;;24.24;62.15;98953.94;4153450;28;21015;-88
2022/05/09 07:40:31;;;;;;;11.77;10.70;;;;;;;24.28;61.94;98959.75;4148490;28;20673;-88
2022/05/09 07:42:35;;;;;;;11.53;10.63;;;;;;;24.14;61.63;98957.78;4150173;28;20618;-88
2022/05/09 07:44:39;;;;;;;11.77;10.77;;;;;;;24.12;61.47;98958.97;4152946;28;20670;-88
2022/05/09 07:46:42;;;;;;;12.27;10.90;;;;;;;24.15;63.58;98959.44;4128334;28;20655;-89
2022/05/09 07:48:48;;;;;;;11.63;10.53;;;;;;;24.30;63.00;98961.25;4117019;28;21007;-88
2022/05/09 07:50:51;;;;;;;12.07;10.97;;;;;;;24.46;61.68;98958.63;4151212;28;20629;-88
2022/05/09 07:52:55;;;;;;;11.43;10.43;;;;;;;24.50;60.56;98954.59;4129520;28;20624;-88
2022/05/09 07:54:58;;;;;;;11.10;10.17;;;;;;;24.49;61.04;98949.41;4131755;28;20631;-89
2022/05/09 07:57:02;;;;;;;11.10;10.13;;;;;;;24.62;60.74;98952.41;4132228;28;20743;-88
2022/05/09 07:59:06;;;;;;;15.07;13.67;;;;;;;24.76;64.02;98956.03;4110779;28;20678;-88
2022/05/09 08:01:10;;;;;;;11.17;10.13;;;;;;;24.96;60.99;98956.44;4145085;28;20732;-89
2022/05/09 08:03:16;;;;;;;12.10;11.10;;;;;;;24.96;60.58;98949.28;4145649;28;20679;-87
2022/05/09 08:05:19;;;;;;;11.40;10.40;;;;;;;24.96;59.62;98959.97;4126338;28;20647;-87
2022/05/09 08:07:23;;;;;;;10.90;9.80;;;;;;;24.92;60.08;98961.28;4128994;28;20826;-87
2022/05/09 08:09:28;;;;;;;11.47;10.50;;;;;;;24.98;60.90;98955.25;4129673;28;21168;-87
2022/05/09 08:11:32;;;;;;;11.07;10.17;;;;;;;25.00;59.41;98953.28;4134050;28;21213;-87
2022/05/09 08:13:36;;;;;;;11.53;10.53;;;;;;;25.13;61.07;98958.09;4131060;28;20631;-87
2022/05/09 08:15:43;;;;;;;11.57;10.57;;;;;;;25.26;59.03;98956.53;4114005;28;21301;-87
2022/05/09 08:17:49;;;;;;;11.67;10.23;;;;;;;25.21;59.75;98961.53;4128610;28;20638;-87
2022/05/09 08:19:55;;;;;;;10.77;9.90;;;;;;;24.98;59.41;98957.13;4112826;28;20656;-87
2022/05/09 08:22:00;;;;;;;11.57;10.47;;;;;;;25.00;61.09;98963.13;4151987;28;21026;-87
2022/05/09 08:24:04;;;;;;;11.67;10.67;;;;;;;25.23;62.53;98955.03;4128334;28;20630;-87
2022/05/09 08:26:08;;;;;;;11.10;10.20;;;;;;;25.37;64.67;98962.28;4135093;28;21056;-87
2022/05/09 08:28:12;;;;;;;11.37;10.37;;;;;;;25.30;60.92;98956.00;4116179;28;20627;-87
2022/05/09 08:30:15;;;;;;;11.87;10.77;;;;;;;25.39;62.27;98959.44;4145504;28;20679;-87
2022/05/09 08:32:20;;;;;;;11.20;10.10;;;;;;;25.50;60.51;98957.22;4135896;28;20627;-86
2022/05/09 08:34:23;;;;;;;11.10;10.20;;;;;;;25.55;62.39;98954.84;4129745;28;20730;-87
2022/05/09 08:38:47;;;;;;;11.67;10.77;;;;;;;25.85;63.00;98954.00;4112615;28;20661;-88
2022/05/09 08:41:01;;;;;;;14.10;12.53;;;;;;;25.90;61.21;98951.59;4146647;28;20687;-89
2022/05/09 08:43:10;;;;;;;15.70;11.67;;;;;;;25.86;59.77;98959.16;4132275;28;20634;-88
2022/05/09 08:45:30;;;;;;;10.60;9.70;;;;;;;25.79;59.35;98957.38;4145768;28;20737;-88
2022/05/09 08:47:49;;;;;;;11.53;10.33;;;;;;;25.76;58.63;98955.06;4130701;28;20758;-89
2022/05/09 08:49:58;;;;;;;24.40;17.90;;;;;;;25.83;60.88;98959.53;4139743;28;20630;-88
2022/05/09 08:52:08;;;;;;;11.93;10.83;;;;;;;25.88;58.28;98964.34;4138665;28;20658;-88
2022/05/09 08:54:21;;;;;;;10.98;10.07;;;;;;;25.92;58.59;98947.75;4113508;28;21170;-88
2022/05/09 08:56:25;;;;;;;11.67;10.67;;;;;;;26.00;58.98;98952.22;4126429;28;20240;-88
2022/05/09 08:58:37;;;;;;;22.53;14.70;;;;;;;26.02;60.36;98948.31;4129344;28;20677;-88
2022/05/09 09:00:44;;;;;;;12.20;11.00;;;;;;;25.94;57.96;98951.06;4143810;28;20705;-87
2022/05/09 09:02:55;;;;;;;10.97;10.07;;;;;;;25.96;61.36;98962.41;4144442;28;20766;-87
2022/05/09 09:05:03;;;;;;;10.47;9.67;;;;;;;26.00;60.80;98958.38;4145361;28;21073;-87
2022/05/09 09:07:32;;;;;;;11.60;10.50;;;;;;;25.94;57.92;98955.59;4144432;28;20662;-88
2022/05/09 09:09:51;;;;;;;11.60;10.40;;;;;;;25.78;57.84;98971.75;4145962;28;20706;-87
2022/05/09 09:11:58;;;;;;;10.87;9.90;;;;;;;25.46;59.06;98957.75;4143862;28;20626;-87
2022/05/09 09:14:07;;;;;;;10.50;9.60;;;;;;;25.54;59.19;98955.00;4135948;28;20650;-88
2022/05/09 09:16:24;;;;;;;11.50;10.40;;;;;;;25.52;58.77;98955.19;4130403;28;21032;-87
2022/05/09 09:18:36;;;;;;;10.33;9.43;;;;;;;25.45;58.84;98956.88;4130476;28;21040;-88
2022/05/09 09:20:48;;;;;;;11.37;10.37;;;;;;;25.60;59.46;98952.44;4106096;28;20664;-88
2022/05/09 09:23:14;;;;;;;11.73;10.60;;;;;;;25.85;60.29;98956.66;4107131;28;20637;-88
2022/05/09 09:25:25;;;;;;;9.67;8.77;;;;;;;25.80;59.01;98957.19;4135089;28;20634;-88
2022/05/09 09:27:35;;;;;;;11.30;10.30;;;;;;;25.71;58.60;98954.78;4133149;28;20750;-88
2022/05/09 09:29:44;;;;;;;11.20;10.10;;;;;;;25.71;57.59;98946.75;4115543;28;20655;-88
2022/05/09 09:31:49;;;;;;;10.30;9.30;;;;;;;25.87;60.61;98938.59;4111721;28;20632;-88
2022/05/09 09:34:01;;;;;;;10.00;9.00;;;;;;;25.91;56.96;98939.91;4126241;28;20630;-88
2022/05/09 09:36:07;;;;;;;10.17;9.20;;;;;;;25.58;56.36;98941.94;4127061;28;20691;-88
2022/05/09 09:38:16;;;;;;;11.13;10.10;;;;;;;25.53;57.54;98939.97;4133188;28;20628;-88
2022/05/09 09:40:19;;;;;;;10.53;9.53;;;;;;;25.61;59.41;98946.09;4135773;28;20631;-88
2022/05/09 09:42:24;;;;;;;10.33;9.40;;;;;;;25.91;57.86;98940.72;4127743;28;20640;-88
2022/05/09 09:44:29;;;;;;;9.10;8.30;;;;;;;25.75;57.21;98950.72;4128651;28;20659;-88
2022/05/09 09:46:32;;;;;;;10.23;9.27;;;;;;;25.46;57.00;98950.53;4128847;28;21261;-88